sensor_id;sensor_type;location;lat;lon;timestamp;P1;durP1;ratioP1;P2;durP2;ratioP2
75297;SDS011;63896;45.990;18.688;2023-10-09T00:02:50;2.92;;;0.90;;
75297;SDS011;63896;45.990;18.688;2023-10-09T00:05:53;3.95;;;1.10;;
75297;SDS011;63896;45.990;18.688;2023-10-09T00:08:57;2.55;;;0.90;;
75297;SDS011;63896;45.990;18.688;2023-10-09T00:12:01;2.97;;;0.80;;
75297;SDS011;63896;45.990;18.688;2023-10-09T00:15:06;3.25;;;1.00;;
75297;SDS011;63896;45.990;18.688;2023-10-09T00:18:14;2.00;;;0.80;;
75297;SDS011;63896;45.990;18.688;2023-10-09T00:21:17;2.22;;;0.80;;
75297;SDS011;63896;45.990;18.688;2023-10-09T00:24:23;2.35;;;0.93;;
75297;SDS011;63896;45.990;18.688;2023-10-09T00:27:26;3.33;;;1.00;;
75297;SDS011;63896;45.990;18.688;2023-10-09T00:30:33;1.90;;;0.60;;
75297;SDS011;63896;45.990;18.688;2023-10-09T00:33:38;2.50;;;1.10;;
75297;SDS011;63896;45.990;18.688;2023-10-09T00:36:41;2.35;;;1.02;;
75297;SDS011;63896;45.990;18.688;2023-10-09T00:39:53;3.40;;;1.00;;
75297;SDS011;63896;45.990;18.688;2023-10-09T00:42:59;2.47;;;0.87;;
75297;SDS011;63896;45.990;18.688;2023-10-09T00:46:08;2.10;;;0.80;;
75297;SDS011;63896;45.990;18.688;2023-10-09T00:49:26;4.30;;;0.80;;
75297;SDS011;63896;45.990;18.688;2023-10-09T00:52:30;4.65;;;0.73;;
75297;SDS011;63896;45.990;18.688;2023-10-09T00:55:52;3.00;;;0.82;;
75297;SDS011;63896;45.990;18.688;2023-10-09T00:58:59;1.90;;;0.70;;
75297;SDS011;63896;45.990;18.688;2023-10-09T01:02:11;3.90;;;1.10;;
75297;SDS011;63896;45.990;18.688;2023-10-09T01:05:14;3.88;;;1.33;;
75297;SDS011;63896;45.990;18.688;2023-10-09T01:08:26;2.75;;;0.93;;
75297;SDS011;63896;45.990;18.688;2023-10-09T01:11:42;3.10;;;0.98;;
75297;SDS011;63896;45.990;18.688;2023-10-09T01:15:05;1.97;;;0.80;;
75297;SDS011;63896;45.990;18.688;2023-10-09T01:18:09;4.10;;;1.38;;
75297;SDS011;63896;45.990;18.688;2023-10-09T01:21:13;3.75;;;1.23;;
75297;SDS011;63896;45.990;18.688;2023-10-09T01:24:17;3.33;;;1.10;;
75297;SDS011;63896;45.990;18.688;2023-10-09T01:27:22;3.13;;;1.13;;
75297;SDS011;63896;45.990;18.688;2023-10-09T01:30:28;2.40;;;0.87;;
75297;SDS011;63896;45.990;18.688;2023-10-09T01:33:31;6.30;;;0.98;;
75297;SDS011;63896;45.990;18.688;2023-10-09T01:36:41;3.88;;;1.00;;
75297;SDS011;63896;45.990;18.688;2023-10-09T01:39:47;3.08;;;0.80;;
75297;SDS011;63896;45.990;18.688;2023-10-09T01:42:54;4.10;;;0.90;;
75297;SDS011;63896;45.990;18.688;2023-10-09T01:45:56;3.27;;;0.70;;
75297;SDS011;63896;45.990;18.688;2023-10-09T01:48:59;2.17;;;0.70;;
75297;SDS011;63896;45.990;18.688;2023-10-09T01:52:10;5.47;;;0.75;;
75297;SDS011;63896;45.990;18.688;2023-10-09T01:55:18;6.07;;;0.82;;
75297;SDS011;63896;45.990;18.688;2023-10-09T01:58:42;2.10;;;0.70;;
75297;SDS011;63896;45.990;18.688;2023-10-09T02:01:49;2.07;;;0.67;;
75297;SDS011;63896;45.990;18.688;2023-10-09T02:04:57;4.70;;;1.90;;
75297;SDS011;63896;45.990;18.688;2023-10-09T02:08:12;2.85;;;1.30;;
75297;SDS011;63896;45.990;18.688;2023-10-09T02:11:15;3.08;;;0.95;;
75297;SDS011;63896;45.990;18.688;2023-10-09T02:14:38;1.65;;;0.63;;
75297;SDS011;63896;45.990;18.688;2023-10-09T02:17:44;3.20;;;1.20;;
75297;SDS011;63896;45.990;18.688;2023-10-09T02:24:03;3.30;;;0.80;;
75297;SDS011;63896;45.990;18.688;2023-10-09T02:27:09;6.18;;;0.88;;
75297;SDS011;63896;45.990;18.688;2023-10-09T02:30:13;2.17;;;0.73;;
75297;SDS011;63896;45.990;18.688;2023-10-09T02:33:42;1.83;;;0.60;;
75297;SDS011;63896;45.990;18.688;2023-10-09T02:36:46;3.05;;;0.75;;
75297;SDS011;63896;45.990;18.688;2023-10-09T02:40:00;2.40;;;0.85;;
75297;SDS011;63896;45.990;18.688;2023-10-09T02:43:10;4.20;;;0.77;;
75297;SDS011;63896;45.990;18.688;2023-10-09T02:46:16;3.67;;;0.77;;
75297;SDS011;63896;45.990;18.688;2023-10-09T02:49:20;2.47;;;0.60;;
75297;SDS011;63896;45.990;18.688;2023-10-09T02:52:23;2.22;;;0.70;;
75297;SDS011;63896;45.990;18.688;2023-10-09T02:55:35;3.22;;;0.80;;
75297;SDS011;63896;45.990;18.688;2023-10-09T02:58:41;5.05;;;1.02;;
75297;SDS011;63896;45.990;18.688;2023-10-09T03:01:45;3.67;;;0.85;;
75297;SDS011;63896;45.990;18.688;2023-10-09T03:04:48;2.30;;;0.83;;
75297;SDS011;63896;45.990;18.688;2023-10-09T03:07:50;2.10;;;0.75;;
75297;SDS011;63896;45.990;18.688;2023-10-09T03:10:55;2.92;;;0.82;;
75297;SDS011;63896;45.990;18.688;2023-10-09T03:14:01;1.35;;;0.60;;
75297;SDS011;63896;45.990;18.688;2023-10-09T03:17:05;4.65;;;0.80;;
75297;SDS011;63896;45.990;18.688;2023-10-09T03:20:15;4.70;;;0.80;;
75297;SDS011;63896;45.990;18.688;2023-10-09T03:23:20;3.55;;;0.85;;
75297;SDS011;63896;45.990;18.688;2023-10-09T03:26:23;2.60;;;0.77;;
75297;SDS011;63896;45.990;18.688;2023-10-09T03:29:27;5.38;;;0.85;;
75297;SDS011;63896;45.990;18.688;2023-10-09T03:32:30;1.83;;;0.60;;
75297;SDS011;63896;45.990;18.688;2023-10-09T03:35:33;1.60;;;0.53;;
75297;SDS011;63896;45.990;18.688;2023-10-09T03:38:38;2.30;;;0.88;;
75297;SDS011;63896;45.990;18.688;2023-10-09T03:41:41;4.50;;;0.90;;
75297;SDS011;63896;45.990;18.688;2023-10-09T03:44:44;2.53;;;1.02;;
75297;SDS011;63896;45.990;18.688;2023-10-09T03:47:55;3.55;;;0.90;;
75297;SDS011;63896;45.990;18.688;2023-10-09T03:51:23;3.83;;;1.07;;
75297;SDS011;63896;45.990;18.688;2023-10-09T03:54:26;1.88;;;0.80;;
75297;SDS011;63896;45.990;18.688;2023-10-09T03:57:30;4.18;;;1.10;;
75297;SDS011;63896;45.990;18.688;2023-10-09T04:00:32;2.80;;;0.85;;
75297;SDS011;63896;45.990;18.688;2023-10-09T04:03:49;2.05;;;0.90;;
75297;SDS011;63896;45.990;18.688;2023-10-09T04:06:57;3.13;;;0.93;;
75297;SDS011;63896;45.990;18.688;2023-10-09T04:10:01;3.33;;;1.15;;
75297;SDS011;63896;45.990;18.688;2023-10-09T04:13:23;3.42;;;1.27;;
75297;SDS011;63896;45.990;18.688;2023-10-09T04:16:34;4.55;;;1.30;;
75297;SDS011;63896;45.990;18.688;2023-10-09T04:19:53;4.68;;;1.02;;
75297;SDS011;63896;45.990;18.688;2023-10-09T04:23:14;5.00;;;1.07;;
75297;SDS011;63896;45.990;18.688;2023-10-09T04:26:18;4.15;;;1.45;;
75297;SDS011;63896;45.990;18.688;2023-10-09T04:29:23;5.38;;;1.33;;
75297;SDS011;63896;45.990;18.688;2023-10-09T04:32:29;3.20;;;1.02;;
75297;SDS011;63896;45.990;18.688;2023-10-09T04:35:33;2.92;;;1.10;;
75297;SDS011;63896;45.990;18.688;2023-10-09T04:38:36;5.43;;;1.37;;
75297;SDS011;63896;45.990;18.688;2023-10-09T04:41:39;4.50;;;1.65;;
75297;SDS011;63896;45.990;18.688;2023-10-09T04:44:45;2.85;;;1.30;;
75297;SDS011;63896;45.990;18.688;2023-10-09T04:48:06;2.60;;;1.00;;
75297;SDS011;63896;45.990;18.688;2023-10-09T04:51:10;2.92;;;1.20;;
75297;SDS011;63896;45.990;18.688;2023-10-09T04:54:45;5.90;;;1.10;;
75297;SDS011;63896;45.990;18.688;2023-10-09T04:58:06;4.50;;;1.30;;
75297;SDS011;63896;45.990;18.688;2023-10-09T05:01:09;2.67;;;0.95;;
75297;SDS011;63896;45.990;18.688;2023-10-09T05:04:15;5.32;;;1.30;;
75297;SDS011;63896;45.990;18.688;2023-10-09T05:07:37;4.70;;;1.20;;
75297;SDS011;63896;45.990;18.688;2023-10-09T05:10:57;6.00;;;1.30;;
75297;SDS011;63896;45.990;18.688;2023-10-09T05:14:03;2.45;;;1.23;;
75297;SDS011;63896;45.990;18.688;2023-10-09T05:17:15;2.88;;;1.50;;
75297;SDS011;63896;45.990;18.688;2023-10-09T05:20:25;8.52;;;2.00;;
75297;SDS011;63896;45.990;18.688;2023-10-09T05:23:28;6.68;;;2.05;;
75297;SDS011;63896;45.990;18.688;2023-10-09T05:26:31;4.83;;;1.70;;
75297;SDS011;63896;45.990;18.688;2023-10-09T05:29:53;13.20;;;3.13;;
75297;SDS011;63896;45.990;18.688;2023-10-09T05:33:02;12.30;;;5.05;;
75297;SDS011;63896;45.990;18.688;2023-10-09T05:36:23;9.77;;;3.88;;
75297;SDS011;63896;45.990;18.688;2023-10-09T05:39:26;8.93;;;2.90;;
75297;SDS011;63896;45.990;18.688;2023-10-09T05:42:44;5.03;;;1.97;;
75297;SDS011;63896;45.990;18.688;2023-10-09T05:45:48;4.78;;;1.80;;
75297;SDS011;63896;45.990;18.688;2023-10-09T05:49:09;4.93;;;1.48;;
75297;SDS011;63896;45.990;18.688;2023-10-09T05:52:22;3.63;;;1.50;;
75297;SDS011;63896;45.990;18.688;2023-10-09T05:55:40;3.35;;;1.27;;
75297;SDS011;63896;45.990;18.688;2023-10-09T05:59:02;5.67;;;1.10;;
75297;SDS011;63896;45.990;18.688;2023-10-09T06:02:23;2.50;;;0.90;;
75297;SDS011;63896;45.990;18.688;2023-10-09T06:06:02;4.50;;;1.23;;
75297;SDS011;63896;45.990;18.688;2023-10-09T06:09:08;3.72;;;1.10;;
75297;SDS011;63896;45.990;18.688;2023-10-09T06:12:26;2.92;;;1.10;;
75297;SDS011;63896;45.990;18.688;2023-10-09T06:15:39;5.27;;;1.10;;
75297;SDS011;63896;45.990;18.688;2023-10-09T06:18:50;3.72;;;1.48;;
75297;SDS011;63896;45.990;18.688;2023-10-09T06:22:13;8.05;;;1.20;;
75297;SDS011;63896;45.990;18.688;2023-10-09T06:25:35;4.03;;;1.13;;
75297;SDS011;63896;45.990;18.688;2023-10-09T06:28:41;5.80;;;1.70;;
75297;SDS011;63896;45.990;18.688;2023-10-09T06:31:52;7.20;;;1.03;;
75297;SDS011;63896;45.990;18.688;2023-10-09T06:35:02;3.30;;;1.45;;
75297;SDS011;63896;45.990;18.688;2023-10-09T06:38:23;4.57;;;1.00;;
75297;SDS011;63896;45.990;18.688;2023-10-09T06:41:35;4.25;;;1.20;;
75297;SDS011;63896;45.990;18.688;2023-10-09T06:44:39;3.35;;;1.10;;
75297;SDS011;63896;45.990;18.688;2023-10-09T06:47:54;1.90;;;0.73;;
75297;SDS011;63896;45.990;18.688;2023-10-09T06:51:20;4.68;;;1.10;;
75297;SDS011;63896;45.990;18.688;2023-10-09T06:54:28;2.97;;;0.95;;
75297;SDS011;63896;45.990;18.688;2023-10-09T06:57:39;2.10;;;0.98;;
75297;SDS011;63896;45.990;18.688;2023-10-09T07:00:52;2.90;;;1.00;;
75297;SDS011;63896;45.990;18.688;2023-10-09T07:04:01;3.60;;;0.90;;
75297;SDS011;63896;45.990;18.688;2023-10-09T07:07:43;2.65;;;0.80;;
75297;SDS011;63896;45.990;18.688;2023-10-09T07:11:00;2.55;;;1.00;;
75297;SDS011;63896;45.990;18.688;2023-10-09T07:14:29;2.17;;;0.95;;
75297;SDS011;63896;45.990;18.688;2023-10-09T07:18:43;2.35;;;0.90;;
75297;SDS011;63896;45.990;18.688;2023-10-09T07:21:56;2.30;;;0.80;;
75297;SDS011;63896;45.990;18.688;2023-10-09T07:25:05;4.95;;;0.98;;
75297;SDS011;63896;45.990;18.688;2023-10-09T07:28:30;5.80;;;1.10;;
75297;SDS011;63896;45.990;18.688;2023-10-09T07:31:39;2.45;;;0.93;;
75297;SDS011;63896;45.990;18.688;2023-10-09T07:34:49;3.22;;;1.15;;
75297;SDS011;63896;45.990;18.688;2023-10-09T07:38:01;4.53;;;1.20;;
75297;SDS011;63896;45.990;18.688;2023-10-09T07:41:05;3.60;;;1.05;;
75297;SDS011;63896;45.990;18.688;2023-10-09T07:44:08;1.80;;;0.85;;
75297;SDS011;63896;45.990;18.688;2023-10-09T07:47:21;4.00;;;1.08;;
75297;SDS011;63896;45.990;18.688;2023-10-09T07:50:47;2.55;;;1.13;;
75297;SDS011;63896;45.990;18.688;2023-10-09T07:53:52;3.07;;;0.93;;
75297;SDS011;63896;45.990;18.688;2023-10-09T07:57:09;2.95;;;0.93;;
75297;SDS011;63896;45.990;18.688;2023-10-09T08:00:18;3.60;;;0.93;;
75297;SDS011;63896;45.990;18.688;2023-10-09T08:03:48;2.30;;;0.90;;
75297;SDS011;63896;45.990;18.688;2023-10-09T08:07:00;3.22;;;1.25;;
75297;SDS011;63896;45.990;18.688;2023-10-09T08:10:28;2.03;;;1.10;;
75297;SDS011;63896;45.990;18.688;2023-10-09T08:13:34;2.72;;;1.00;;
75297;SDS011;63896;45.990;18.688;2023-10-09T08:17:00;6.68;;;1.40;;
75297;SDS011;63896;45.990;18.688;2023-10-09T08:20:17;1.83;;;0.90;;
75297;SDS011;63896;45.990;18.688;2023-10-09T08:23:20;3.85;;;1.10;;
75297;SDS011;63896;45.990;18.688;2023-10-09T08:26:36;6.33;;;2.17;;
75297;SDS011;63896;45.990;18.688;2023-10-09T08:29:49;5.22;;;0.90;;
75297;SDS011;63896;45.990;18.688;2023-10-09T08:33:13;1.73;;;0.95;;
75297;SDS011;63896;45.990;18.688;2023-10-09T08:36:30;3.97;;;1.20;;
75297;SDS011;63896;45.990;18.688;2023-10-09T08:39:42;3.33;;;1.42;;
75297;SDS011;63896;45.990;18.688;2023-10-09T08:42:53;4.30;;;1.10;;
75297;SDS011;63896;45.990;18.688;2023-10-09T08:45:59;7.07;;;4.00;;
75297;SDS011;63896;45.990;18.688;2023-10-09T08:49:28;5.10;;;2.60;;
75297;SDS011;63896;45.990;18.688;2023-10-09T08:53:43;6.78;;;1.75;;
75297;SDS011;63896;45.990;18.688;2023-10-09T08:57:15;2.35;;;1.40;;
75297;SDS011;63896;45.990;18.688;2023-10-09T09:00:23;5.90;;;1.50;;
75297;SDS011;63896;45.990;18.688;2023-10-09T09:03:34;5.40;;;1.25;;
75297;SDS011;63896;45.990;18.688;2023-10-09T09:06:40;3.65;;;1.42;;
75297;SDS011;63896;45.990;18.688;2023-10-09T09:10:03;2.58;;;1.25;;
75297;SDS011;63896;45.990;18.688;2023-10-09T09:13:20;3.97;;;1.08;;
75297;SDS011;63896;45.990;18.688;2023-10-09T09:16:24;6.73;;;1.20;;
75297;SDS011;63896;45.990;18.688;2023-10-09T09:19:34;5.20;;;1.02;;
75297;SDS011;63896;45.990;18.688;2023-10-09T09:22:51;5.30;;;1.35;;
75297;SDS011;63896;45.990;18.688;2023-10-09T09:26:04;1.80;;;1.10;;
75297;SDS011;63896;45.990;18.688;2023-10-09T09:29:20;4.30;;;1.30;;
75297;SDS011;63896;45.990;18.688;2023-10-09T09:32:27;5.53;;;1.20;;
75297;SDS011;63896;45.990;18.688;2023-10-09T09:35:55;2.60;;;0.95;;
75297;SDS011;63896;45.990;18.688;2023-10-09T09:39:07;2.80;;;1.05;;
75297;SDS011;63896;45.990;18.688;2023-10-09T09:42:22;3.38;;;0.90;;
75297;SDS011;63896;45.990;18.688;2023-10-09T09:45:33;6.07;;;1.27;;
75297;SDS011;63896;45.990;18.688;2023-10-09T09:48:38;3.53;;;1.20;;
75297;SDS011;63896;45.990;18.688;2023-10-09T09:51:47;6.28;;;1.77;;
75297;SDS011;63896;45.990;18.688;2023-10-09T09:54:50;5.80;;;1.38;;
75297;SDS011;63896;45.990;18.688;2023-10-09T09:57:53;6.82;;;1.40;;
75297;SDS011;63896;45.990;18.688;2023-10-09T10:00:56;3.83;;;1.10;;
75297;SDS011;63896;45.990;18.688;2023-10-09T10:04:05;4.50;;;1.53;;
75297;SDS011;63896;45.990;18.688;2023-10-09T10:07:16;3.33;;;1.48;;
75297;SDS011;63896;45.990;18.688;2023-10-09T10:10:36;4.78;;;1.55;;
75297;SDS011;63896;45.990;18.688;2023-10-09T10:20:27;7.10;;;1.37;;
75297;SDS011;63896;45.990;18.688;2023-10-09T10:23:33;3.35;;;1.33;;
75297;SDS011;63896;45.990;18.688;2023-10-09T10:26:39;2.63;;;1.17;;
75297;SDS011;63896;45.990;18.688;2023-10-09T10:29:43;4.45;;;1.27;;
75297;SDS011;63896;45.990;18.688;2023-10-09T10:35:54;12.03;;;1.30;;
75297;SDS011;63896;45.990;18.688;2023-10-09T10:39:08;5.88;;;1.70;;
75297;SDS011;63896;45.990;18.688;2023-10-09T10:42:23;3.60;;;1.63;;
75297;SDS011;63896;45.990;18.688;2023-10-09T10:45:39;3.25;;;1.60;;
75297;SDS011;63896;45.990;18.688;2023-10-09T10:48:48;4.13;;;1.60;;
75297;SDS011;63896;45.990;18.688;2023-10-09T10:51:52;4.80;;;1.63;;
75297;SDS011;63896;45.990;18.688;2023-10-09T10:55:09;4.95;;;1.48;;
75297;SDS011;63896;45.990;18.688;2023-10-09T10:58:41;5.82;;;1.73;;
75297;SDS011;63896;45.990;18.688;2023-10-09T11:02:11;6.63;;;1.85;;
75297;SDS011;63896;45.990;18.688;2023-10-09T11:05:15;6.45;;;1.63;;
75297;SDS011;63896;45.990;18.688;2023-10-09T11:08:26;4.23;;;1.50;;
75297;SDS011;63896;45.990;18.688;2023-10-09T11:11:35;12.60;;;1.95;;
75297;SDS011;63896;45.990;18.688;2023-10-09T11:14:45;8.48;;;1.73;;
75297;SDS011;63896;45.990;18.688;2023-10-09T11:18:08;6.25;;;1.70;;
75297;SDS011;63896;45.990;18.688;2023-10-09T11:21:15;4.43;;;2.00;;
75297;SDS011;63896;45.990;18.688;2023-10-09T11:24:18;13.60;;;1.80;;
75297;SDS011;63896;45.990;18.688;2023-10-09T11:27:27;8.77;;;1.67;;
75297;SDS011;63896;45.990;18.688;2023-10-09T11:30:35;16.00;;;2.47;;
75297;SDS011;63896;45.990;18.688;2023-10-09T11:33:42;3.25;;;1.60;;
75297;SDS011;63896;45.990;18.688;2023-10-09T11:36:54;6.38;;;1.90;;
75297;SDS011;63896;45.990;18.688;2023-10-09T11:39:59;5.97;;;1.80;;
75297;SDS011;63896;45.990;18.688;2023-10-09T11:43:24;8.55;;;1.80;;
75297;SDS011;63896;45.990;18.688;2023-10-09T11:46:59;2.85;;;1.45;;
75297;SDS011;63896;45.990;18.688;2023-10-09T11:50:19;4.70;;;1.50;;
75297;SDS011;63896;45.990;18.688;2023-10-09T11:53:24;10.00;;;1.60;;
75297;SDS011;63896;45.990;18.688;2023-10-09T11:56:30;3.37;;;1.20;;
75297;SDS011;63896;45.990;18.688;2023-10-09T11:59:34;6.47;;;1.77;;
75297;SDS011;63896;45.990;18.688;2023-10-09T12:02:40;6.75;;;1.52;;
75297;SDS011;63896;45.990;18.688;2023-10-09T12:05:47;7.90;;;1.67;;
75297;SDS011;63896;45.990;18.688;2023-10-09T12:08:52;4.32;;;1.77;;
75297;SDS011;63896;45.990;18.688;2023-10-09T12:12:04;4.53;;;1.77;;
75297;SDS011;63896;45.990;18.688;2023-10-09T12:15:08;8.75;;;1.65;;
75297;SDS011;63896;45.990;18.688;2023-10-09T12:18:20;4.82;;;1.98;;
75297;SDS011;63896;45.990;18.688;2023-10-09T12:21:24;5.25;;;1.40;;
75297;SDS011;63896;45.990;18.688;2023-10-09T12:24:33;8.25;;;1.80;;
75297;SDS011;63896;45.990;18.688;2023-10-09T12:27:36;10.17;;;1.50;;
75297;SDS011;63896;45.990;18.688;2023-10-09T12:30:40;5.47;;;1.45;;
75297;SDS011;63896;45.990;18.688;2023-10-09T12:33:48;4.10;;;1.45;;
75297;SDS011;63896;45.990;18.688;2023-10-09T12:37:16;4.55;;;1.33;;
75297;SDS011;63896;45.990;18.688;2023-10-09T12:40:21;5.95;;;1.35;;
75297;SDS011;63896;45.990;18.688;2023-10-09T12:43:31;5.63;;;1.80;;
75297;SDS011;63896;45.990;18.688;2023-10-09T12:46:41;9.45;;;1.50;;
75297;SDS011;63896;45.990;18.688;2023-10-09T12:49:45;12.02;;;1.50;;
75297;SDS011;63896;45.990;18.688;2023-10-09T12:52:47;6.93;;;1.33;;
75297;SDS011;63896;45.990;18.688;2023-10-09T12:55:53;5.22;;;1.10;;
75297;SDS011;63896;45.990;18.688;2023-10-09T12:58:59;7.37;;;1.20;;
75297;SDS011;63896;45.990;18.688;2023-10-09T13:02:04;10.30;;;1.50;;
75297;SDS011;63896;45.990;18.688;2023-10-09T13:05:08;5.25;;;1.50;;
75297;SDS011;63896;45.990;18.688;2023-10-09T13:08:12;6.30;;;1.00;;
75297;SDS011;63896;45.990;18.688;2023-10-09T13:14:43;13.03;;;1.00;;
75297;SDS011;63896;45.990;18.688;2023-10-09T13:17:48;10.52;;;1.50;;
75297;SDS011;63896;45.990;18.688;2023-10-09T13:20:50;10.73;;;1.95;;
75297;SDS011;63896;45.990;18.688;2023-10-09T13:23:54;6.97;;;1.33;;
75297;SDS011;63896;45.990;18.688;2023-10-09T13:26:57;7.45;;;1.13;;
75297;SDS011;63896;45.990;18.688;2023-10-09T13:30:03;7.33;;;1.60;;
75297;SDS011;63896;45.990;18.688;2023-10-09T13:33:10;10.20;;;1.08;;
75297;SDS011;63896;45.990;18.688;2023-10-09T13:36:19;9.80;;;1.35;;
75297;SDS011;63896;45.990;18.688;2023-10-09T13:39:30;5.40;;;1.00;;
75297;SDS011;63896;45.990;18.688;2023-10-09T13:42:39;5.75;;;1.40;;
75297;SDS011;63896;45.990;18.688;2023-10-09T13:45:43;5.47;;;1.10;;
75297;SDS011;63896;45.990;18.688;2023-10-09T13:48:52;7.78;;;1.50;;
75297;SDS011;63896;45.990;18.688;2023-10-09T13:51:55;7.13;;;1.20;;
75297;SDS011;63896;45.990;18.688;2023-10-09T13:54:59;3.58;;;1.15;;
75297;SDS011;63896;45.990;18.688;2023-10-09T13:58:17;3.92;;;1.10;;
75297;SDS011;63896;45.990;18.688;2023-10-09T14:01:23;9.20;;;1.10;;
75297;SDS011;63896;45.990;18.688;2023-10-09T14:04:29;5.88;;;1.08;;
75297;SDS011;63896;45.990;18.688;2023-10-09T14:07:32;4.95;;;1.30;;
75297;SDS011;63896;45.990;18.688;2023-10-09T14:10:37;6.65;;;1.40;;
75297;SDS011;63896;45.990;18.688;2023-10-09T14:13:41;7.03;;;1.83;;
75297;SDS011;63896;45.990;18.688;2023-10-09T14:16:44;5.83;;;1.20;;
75297;SDS011;63896;45.990;18.688;2023-10-09T14:19:48;7.00;;;1.13;;
75297;SDS011;63896;45.990;18.688;2023-10-09T14:22:55;7.35;;;1.27;;
75297;SDS011;63896;45.990;18.688;2023-10-09T14:25:58;7.55;;;1.52;;
75297;SDS011;63896;45.990;18.688;2023-10-09T14:29:04;10.23;;;1.23;;
75297;SDS011;63896;45.990;18.688;2023-10-09T14:32:10;10.53;;;1.40;;
75297;SDS011;63896;45.990;18.688;2023-10-09T14:35:15;3.63;;;1.00;;
75297;SDS011;63896;45.990;18.688;2023-10-09T14:38:18;12.05;;;1.45;;
75297;SDS011;63896;45.990;18.688;2023-10-09T14:41:29;7.38;;;1.13;;
75297;SDS011;63896;45.990;18.688;2023-10-09T14:44:35;4.47;;;1.25;;
75297;SDS011;63896;45.990;18.688;2023-10-09T14:47:43;9.40;;;1.13;;
75297;SDS011;63896;45.990;18.688;2023-10-09T14:50:46;5.40;;;1.60;;
75297;SDS011;63896;45.990;18.688;2023-10-09T14:53:50;7.65;;;1.60;;
75297;SDS011;63896;45.990;18.688;2023-10-09T14:56:55;6.20;;;1.20;;
75297;SDS011;63896;45.990;18.688;2023-10-09T14:59:59;10.23;;;1.60;;
75297;SDS011;63896;45.990;18.688;2023-10-09T15:03:02;5.27;;;1.60;;
75297;SDS011;63896;45.990;18.688;2023-10-09T15:06:05;6.13;;;1.30;;
75297;SDS011;63896;45.990;18.688;2023-10-09T15:09:12;9.85;;;1.23;;
75297;SDS011;63896;45.990;18.688;2023-10-09T15:12:24;10.57;;;1.63;;
75297;SDS011;63896;45.990;18.688;2023-10-09T15:15:27;7.05;;;1.30;;
75297;SDS011;63896;45.990;18.688;2023-10-09T15:18:33;9.47;;;1.60;;
75297;SDS011;63896;45.990;18.688;2023-10-09T15:21:36;7.68;;;1.48;;
75297;SDS011;63896;45.990;18.688;2023-10-09T15:24:46;9.30;;;1.40;;
75297;SDS011;63896;45.990;18.688;2023-10-09T15:27:49;7.70;;;1.55;;
75297;SDS011;63896;45.990;18.688;2023-10-09T15:30:52;7.53;;;1.60;;
75297;SDS011;63896;45.990;18.688;2023-10-09T15:33:55;10.63;;;1.37;;
75297;SDS011;63896;45.990;18.688;2023-10-09T15:36:58;8.88;;;1.30;;
75297;SDS011;63896;45.990;18.688;2023-10-09T15:40:01;7.30;;;1.13;;
75297;SDS011;63896;45.990;18.688;2023-10-09T15:43:07;4.32;;;1.08;;
75297;SDS011;63896;45.990;18.688;2023-10-09T15:46:13;6.93;;;1.45;;
75297;SDS011;63896;45.990;18.688;2023-10-09T15:49:17;9.90;;;1.30;;
75297;SDS011;63896;45.990;18.688;2023-10-09T15:52:19;9.63;;;1.50;;
75297;SDS011;63896;45.990;18.688;2023-10-09T15:55:23;8.30;;;1.75;;
75297;SDS011;63896;45.990;18.688;2023-10-09T15:58:31;6.45;;;1.83;;
75297;SDS011;63896;45.990;18.688;2023-10-09T16:01:34;7.13;;;1.70;;
75297;SDS011;63896;45.990;18.688;2023-10-09T16:04:38;5.60;;;1.77;;
75297;SDS011;63896;45.990;18.688;2023-10-09T16:07:42;11.48;;;1.60;;
75297;SDS011;63896;45.990;18.688;2023-10-09T16:10:45;10.95;;;1.85;;
75297;SDS011;63896;45.990;18.688;2023-10-09T16:13:52;13.77;;;2.20;;
75297;SDS011;63896;45.990;18.688;2023-10-09T16:16:58;6.45;;;2.50;;
75297;SDS011;63896;45.990;18.688;2023-10-09T16:20:01;10.70;;;2.47;;
75297;SDS011;63896;45.990;18.688;2023-10-09T16:23:04;9.13;;;2.25;;
75297;SDS011;63896;45.990;18.688;2023-10-09T16:26:07;16.00;;;3.60;;
75297;SDS011;63896;45.990;18.688;2023-10-09T16:29:10;13.75;;;3.55;;
75297;SDS011;63896;45.990;18.688;2023-10-09T16:32:13;11.25;;;3.45;;
75297;SDS011;63896;45.990;18.688;2023-10-09T16:35:19;12.03;;;3.63;;
75297;SDS011;63896;45.990;18.688;2023-10-09T16:38:25;13.73;;;5.75;;
75297;SDS011;63896;45.990;18.688;2023-10-09T16:41:28;20.65;;;6.45;;
75297;SDS011;63896;45.990;18.688;2023-10-09T16:44:31;18.75;;;7.63;;
75297;SDS011;63896;45.990;18.688;2023-10-09T16:47:39;15.18;;;5.97;;
75297;SDS011;63896;45.990;18.688;2023-10-09T16:50:41;14.90;;;5.23;;
75297;SDS011;63896;45.990;18.688;2023-10-09T16:53:49;12.50;;;4.40;;
75297;SDS011;63896;45.990;18.688;2023-10-09T16:56:57;11.80;;;3.80;;
75297;SDS011;63896;45.990;18.688;2023-10-09T17:00:00;8.10;;;2.40;;
75297;SDS011;63896;45.990;18.688;2023-10-09T17:03:03;9.65;;;2.88;;
75297;SDS011;63896;45.990;18.688;2023-10-09T17:06:10;7.87;;;2.70;;
75297;SDS011;63896;45.990;18.688;2023-10-09T17:09:14;14.50;;;3.00;;
75297;SDS011;63896;45.990;18.688;2023-10-09T17:12:17;13.73;;;3.58;;
75297;SDS011;63896;45.990;18.688;2023-10-09T17:15:20;55.42;;;17.48;;
75297;SDS011;63896;45.990;18.688;2023-10-09T17:18:23;66.05;;;23.60;;
75297;SDS011;63896;45.990;18.688;2023-10-09T17:21:27;78.00;;;25.53;;
75297;SDS011;63896;45.990;18.688;2023-10-09T17:24:38;84.57;;;30.15;;
75297;SDS011;63896;45.990;18.688;2023-10-09T17:27:47;86.60;;;27.33;;
75297;SDS011;63896;45.990;18.688;2023-10-09T17:30:49;55.45;;;20.42;;
75297;SDS011;63896;45.990;18.688;2023-10-09T17:34:02;35.33;;;13.93;;
75297;SDS011;63896;45.990;18.688;2023-10-09T17:37:05;37.03;;;11.87;;
75297;SDS011;63896;45.990;18.688;2023-10-09T17:40:08;28.70;;;10.00;;
75297;SDS011;63896;45.990;18.688;2023-10-09T17:43:12;29.15;;;9.07;;
75297;SDS011;63896;45.990;18.688;2023-10-09T17:46:15;16.95;;;5.82;;
75297;SDS011;63896;45.990;18.688;2023-10-09T17:49:21;15.85;;;4.82;;
75297;SDS011;63896;45.990;18.688;2023-10-09T17:52:26;20.17;;;3.93;;
75297;SDS011;63896;45.990;18.688;2023-10-09T17:55:30;14.13;;;3.83;;
75297;SDS011;63896;45.990;18.688;2023-10-09T17:58:34;13.57;;;3.28;;
75297;SDS011;63896;45.990;18.688;2023-10-09T18:01:38;15.30;;;2.70;;
75297;SDS011;63896;45.990;18.688;2023-10-09T18:04:41;15.32;;;2.15;;
75297;SDS011;63896;45.990;18.688;2023-10-09T18:07:44;13.53;;;2.17;;
75297;SDS011;63896;45.990;18.688;2023-10-09T18:10:47;13.35;;;2.22;;
75297;SDS011;63896;45.990;18.688;2023-10-09T18:13:53;15.27;;;2.67;;
75297;SDS011;63896;45.990;18.688;2023-10-09T18:16:56;12.95;;;3.00;;
75297;SDS011;63896;45.990;18.688;2023-10-09T18:19:59;8.40;;;2.58;;
75297;SDS011;63896;45.990;18.688;2023-10-09T18:23:03;11.80;;;2.13;;
75297;SDS011;63896;45.990;18.688;2023-10-09T18:26:07;12.40;;;2.22;;
75297;SDS011;63896;45.990;18.688;2023-10-09T18:29:10;9.70;;;1.90;;
75297;SDS011;63896;45.990;18.688;2023-10-09T18:32:17;10.45;;;3.08;;
75297;SDS011;63896;45.990;18.688;2023-10-09T18:35:20;8.23;;;1.67;;
75297;SDS011;63896;45.990;18.688;2023-10-09T18:38:23;10.73;;;2.23;;
75297;SDS011;63896;45.990;18.688;2023-10-09T18:41:26;5.55;;;1.50;;
75297;SDS011;63896;45.990;18.688;2023-10-09T18:44:29;11.35;;;2.45;;
75297;SDS011;63896;45.990;18.688;2023-10-09T18:47:31;6.50;;;1.98;;
75297;SDS011;63896;45.990;18.688;2023-10-09T18:50:40;12.30;;;1.70;;
75297;SDS011;63896;45.990;18.688;2023-10-09T18:53:46;7.97;;;1.50;;
75297;SDS011;63896;45.990;18.688;2023-10-09T18:56:50;8.18;;;1.80;;